createdAt,value
2023-04-02T00:00:20.771Z,3.15
2023-04-02T00:03:10.444Z,3.13
2023-04-02T00:05:51.583Z,3.11
2023-04-02T00:08:31.227Z,3.13
2023-04-02T00:11:02.774Z,3.16
2023-04-02T00:13:35.750Z,3.14
2023-04-02T00:16:09.639Z,3.16
2023-04-02T00:18:45.529Z,3.14
2023-04-02T00:21:20.608Z,3.16
2023-04-02T00:23:50.530Z,3.16
2023-04-02T00:26:25.468Z,3.17
2023-04-02T00:28:55.173Z,3.24
2023-04-02T00:31:27.319Z,3.28
2023-04-02T00:33:57.092Z,3.26
2023-04-02T00:36:30.571Z,3.26
2023-04-02T00:39:03.028Z,3.24
2023-04-02T00:41:36.315Z,3.22
2023-04-02T00:44:07.068Z,3.25
2023-04-02T00:46:47.152Z,3.18
2023-04-02T00:49:24.858Z,3.20
2023-04-02T00:51:58.182Z,3.22
2023-04-02T00:54:32.770Z,3.23
2023-04-02T00:57:02.991Z,3.22
2023-04-02T00:59:35.777Z,3.26
2023-04-02T01:02:28.954Z,3.22
2023-04-02T01:05:00.447Z,3.18
2023-04-02T01:07:49.302Z,3.09
2023-04-02T01:10:41.436Z,3.07
2023-04-02T01:13:22.365Z,3.12
2023-04-02T01:15:58.529Z,3.08
2023-04-02T01:18:54.415Z,3.06
2023-04-02T01:21:53.929Z,3.09
2023-04-02T01:24:26.571Z,3.06
2023-04-02T01:26:58.947Z,3.02
2023-04-02T01:29:33.553Z,3.01
2023-04-02T01:32:05.993Z,3.02
2023-04-02T01:34:36.439Z,3.01
2023-04-02T01:37:24.174Z,3.02
2023-04-02T01:40:07.484Z,3.04
2023-04-02T01:42:41.702Z,3.02
2023-04-02T01:45:14.430Z,3.00
2023-04-02T01:47:46.091Z,3.01
2023-04-02T01:50:31.613Z,3.00
2023-04-02T01:53:04.585Z,2.99
2023-04-02T01:55:41.032Z,2.99
2023-04-02T01:58:13.934Z,3.01
2023-04-02T02:00:52.133Z,3.00
2023-04-02T02:03:22.665Z,3.05
2023-04-02T02:05:53.075Z,3.06
2023-04-02T02:08:35.357Z,3.06
2023-04-02T02:11:05.726Z,3.03
2023-04-02T02:13:35.126Z,3.00
2023-04-02T02:16:08.454Z,3.04
2023-04-02T02:18:39.124Z,3.06
2023-04-02T02:21:09.385Z,3.05
2023-04-02T02:23:39.143Z,3.05
2023-04-02T02:26:09.152Z,3.09
2023-04-02T02:28:43.619Z,3.10
2023-04-02T02:31:28.757Z,3.11
2023-04-02T02:34:04.949Z,3.12
2023-04-02T02:36:41.075Z,3.12
2023-04-02T02:39:17.569Z,3.07
2023-04-02T02:41:54.526Z,3.09
2023-04-02T02:44:28.201Z,3.15
2023-04-02T02:47:04.190Z,3.10
2023-04-02T02:49:37.150Z,3.06
2023-04-02T02:52:16.843Z,3.08
2023-04-02T02:55:19.322Z,3.10
2023-04-02T02:58:01.856Z,3.12
2023-04-02T03:00:36.558Z,3.12
2023-04-02T03:03:10.882Z,3.15
2023-04-02T03:05:41.830Z,3.12
2023-04-02T03:08:26.703Z,3.13
2023-04-02T03:11:02.230Z,3.13
2023-04-02T03:13:35.663Z,3.14
2023-04-02T03:16:13.032Z,3.16
2023-04-02T03:18:49.239Z,3.14
2023-04-02T03:21:27.396Z,3.24
2023-04-02T03:24:02.317Z,3.25
2023-04-02T03:26:36.117Z,3.24
2023-04-02T03:29:15.587Z,3.28
2023-04-02T03:31:51.596Z,3.22
2023-04-02T03:34:28.155Z,3.26
2023-04-02T03:37:02.863Z,3.27
2023-04-02T03:39:38.834Z,3.29
2023-04-02T03:42:15.648Z,3.28
2023-04-02T03:44:50.835Z,3.30
2023-04-02T03:47:29.204Z,3.28
2023-04-02T03:50:04.728Z,3.30
2023-04-02T03:52:37.853Z,3.33
2023-04-02T03:55:17.593Z,3.33
2023-04-02T03:57:58.818Z,3.37
2023-04-02T04:00:38.029Z,3.35
2023-04-02T04:03:12.512Z,3.35
2023-04-02T04:05:50.320Z,3.39
2023-04-02T04:08:23.369Z,3.38
2023-04-02T04:10:55.014Z,3.39
2023-04-02T04:13:31.920Z,3.40
2023-04-02T04:16:06.172Z,3.36
2023-04-02T04:18:42.131Z,3.35
2023-04-02T04:21:29.900Z,3.35
2023-04-02T04:24:06.187Z,3.35
2023-04-02T04:26:42.973Z,3.33
2023-04-02T04:29:28.553Z,3.29
2023-04-02T04:32:01.592Z,3.38
2023-04-02T04:34:42.324Z,3.38
2023-04-02T04:37:25.259Z,3.36
2023-04-02T04:40:01.416Z,3.35
2023-04-02T04:42:36.478Z,3.43
2023-04-02T04:45:15.166Z,3.43
2023-04-02T04:47:52.194Z,3.39
2023-04-02T04:50:31.771Z,3.41
2023-04-02T04:53:09.009Z,3.42
2023-04-02T04:55:41.408Z,3.39
2023-04-02T04:58:20.414Z,3.40
2023-04-02T05:01:01.811Z,3.46
2023-04-02T05:03:36.809Z,3.44
2023-04-02T05:06:14.611Z,3.43
2023-04-02T05:08:50.289Z,3.48
2023-04-02T05:11:28.185Z,3.46
2023-04-02T05:14:02.572Z,3.48
2023-04-02T05:16:37.964Z,3.47
2023-04-02T05:19:14.587Z,3.49
2023-04-02T05:21:48.745Z,3.49
2023-04-02T05:24:47.155Z,3.52
2023-04-02T05:27:30.557Z,3.56
2023-04-02T05:30:07.430Z,3.53
2023-04-02T05:32:41.882Z,3.51
2023-04-02T05:35:18.708Z,3.52
2023-04-02T05:37:49.357Z,3.60
2023-04-02T05:40:29.066Z,3.60
2023-04-02T05:43:01.248Z,3.60
2023-04-02T05:45:35.841Z,3.53
2023-04-02T05:48:14.445Z,3.57
2023-04-02T05:50:49.164Z,3.53
2023-04-02T05:53:29.191Z,3.57
2023-04-02T05:56:04.415Z,3.58
2023-04-02T05:58:39.617Z,3.57
2023-04-02T06:01:26.385Z,3.58
2023-04-02T06:04:03.900Z,3.60
2023-04-02T06:06:47.612Z,3.62
2023-04-02T06:09:22.832Z,3.58
2023-04-02T06:12:01.608Z,3.64
2023-04-02T06:14:32.316Z,3.66
2023-04-02T06:17:01.988Z,3.66
2023-04-02T06:19:36.936Z,3.64
2023-04-02T06:22:20.054Z,3.62
2023-04-02T06:24:56.235Z,3.63
2023-04-02T06:27:28.702Z,3.69
2023-04-02T06:30:03.528Z,3.71
2023-04-02T06:32:34.793Z,3.74
2023-04-02T06:35:04.721Z,3.73
2023-04-02T06:37:39.578Z,3.72
2023-04-02T06:40:42.816Z,3.76
2023-04-02T06:43:33.591Z,3.81
2023-04-02T06:46:44.942Z,3.80
2023-04-02T06:49:24.412Z,3.81
2023-04-02T06:52:02.205Z,3.84
2023-04-02T06:54:33.860Z,3.89
2023-04-02T06:57:08.964Z,3.91
2023-04-02T06:59:43.146Z,3.89
2023-04-02T07:02:32.123Z,3.92
2023-04-02T07:05:09.639Z,3.94
2023-04-02T07:07:43.379Z,3.87
2023-04-02T07:10:14.424Z,3.90
2023-04-02T07:12:44.296Z,3.92
2023-04-02T07:15:17.764Z,4.00
2023-04-02T07:17:47.544Z,4.04
2023-04-02T07:20:28.278Z,4.11
2023-04-02T07:22:59.456Z,4.16
2023-04-02T07:25:30.429Z,4.11
2023-04-02T07:28:01.458Z,4.20
2023-04-02T07:30:32.037Z,4.28
2023-04-02T07:33:01.803Z,4.27
2023-04-02T07:35:31.121Z,4.37
2023-04-02T07:38:02.081Z,4.39
2023-04-02T07:40:31.258Z,4.43
2023-04-02T07:43:00.930Z,4.45
2023-04-02T07:45:31.543Z,4.47
2023-04-02T07:48:06.450Z,4.52
2023-04-02T07:50:36.138Z,4.51
2023-04-02T07:53:07.141Z,4.58
2023-04-02T07:55:36.835Z,4.65
2023-04-02T07:58:06.442Z,4.65
2023-04-02T08:00:38.715Z,4.69
2023-04-02T08:03:09.264Z,4.74
2023-04-02T08:05:38.464Z,4.77
2023-04-02T08:08:08.116Z,4.80
2023-04-02T08:10:38.004Z,4.78
2023-04-02T08:13:07.465Z,4.78
2023-04-02T08:15:38.308Z,4.81
2023-04-02T08:18:07.944Z,4.83
2023-04-02T08:20:37.031Z,4.84
2023-04-02T08:23:13.798Z,4.85
2023-04-02T08:25:43.039Z,4.84
2023-04-02T08:28:12.440Z,4.91
2023-04-02T08:30:43.009Z,4.95
2023-04-02T08:33:12.573Z,4.93
2023-04-02T08:35:42.127Z,4.93
2023-04-02T08:38:15.504Z,4.96
2023-04-02T08:40:48.774Z,5.01
2023-04-02T08:43:45.219Z,5.01
2023-04-02T08:46:23.007Z,4.99
2023-04-02T08:48:56.983Z,4.99
2023-04-02T08:51:28.531Z,4.99
2023-04-02T08:54:03.133Z,4.99
2023-04-02T08:56:40.334Z,4.98
2023-04-02T08:59:20.135Z,4.99
2023-04-02T09:01:59.121Z,5.07
2023-04-02T09:04:29.590Z,5.06
2023-04-02T09:07:00.829Z,5.14
2023-04-02T09:09:30.958Z,5.21
2023-04-02T09:12:04.403Z,5.25
2023-04-02T09:14:43.050Z,5.29
2023-04-02T09:17:20.396Z,5.28
2023-04-02T09:19:57.149Z,5.34
2023-04-02T09:22:29.270Z,5.33
2023-04-02T09:25:02.191Z,5.34
2023-04-02T09:27:34.507Z,5.42
2023-04-02T09:30:07.969Z,5.48
2023-04-02T09:32:58.689Z,5.48
2023-04-02T09:35:29.673Z,5.46
2023-04-02T09:38:19.404Z,5.50
2023-04-02T09:40:53.023Z,5.51
2023-04-02T09:43:24.327Z,5.56
2023-04-02T09:46:02.028Z,5.60
2023-04-02T09:48:35.702Z,5.66
2023-04-02T09:51:17.130Z,5.65
2023-04-02T09:53:49.362Z,5.70
2023-04-02T09:56:21.830Z,5.74
2023-04-02T09:59:05.152Z,5.65
2023-04-02T10:01:36.853Z,5.66
2023-04-02T10:04:33.598Z,5.70
2023-04-02T10:07:03.419Z,5.75
2023-04-02T10:09:34.379Z,5.76
2023-04-02T10:12:07.251Z,5.76
2023-04-02T10:14:39.584Z,5.80
2023-04-02T10:17:15.530Z,5.77
2023-04-02T10:19:50.318Z,5.69
2023-04-02T10:22:21.690Z,5.53
2023-04-02T10:24:51.885Z,5.52
2023-04-02T10:27:32.042Z,5.63
2023-04-02T10:30:13.518Z,5.72
2023-04-02T10:32:49.866Z,5.79
2023-04-02T10:35:34.469Z,5.74
2023-04-02T10:38:31.598Z,5.74
2023-04-02T10:41:07.518Z,5.74
2023-04-02T10:43:53.694Z,5.78
2023-04-02T10:46:29.609Z,5.85
2023-04-02T10:49:12.050Z,5.87
2023-04-02T10:51:47.436Z,5.87
2023-04-02T10:54:41.064Z,5.82
2023-04-02T10:57:21.912Z,5.92
2023-04-02T10:59:57.200Z,5.93
2023-04-02T11:02:40.016Z,5.89
2023-04-02T11:05:19.617Z,5.93
2023-04-02T11:07:58.929Z,5.95
2023-04-02T11:10:31.628Z,5.98
2023-04-02T11:13:07.857Z,5.95
2023-04-02T11:15:38.387Z,5.93
2023-04-02T11:18:12.610Z,5.90
2023-04-02T11:21:04.402Z,5.87
2023-04-02T11:23:55.838Z,5.90
2023-04-02T11:26:38.636Z,5.81
2023-04-02T11:29:17.922Z,5.83
2023-04-02T11:31:48.454Z,5.87
2023-04-02T11:35:06.727Z,5.93
2023-04-02T11:37:43.214Z,5.92
2023-04-02T11:40:51.716Z,5.98
2023-04-02T11:43:53.022Z,5.91
2023-04-02T11:46:46.515Z,5.92
2023-04-02T11:49:36.016Z,5.91
2023-04-02T11:52:20.717Z,5.88
2023-04-02T11:54:59.531Z,5.85
2023-04-02T11:58:28.765Z,5.84
2023-04-02T12:01:39.233Z,5.93
2023-04-02T12:04:26.073Z,5.94
2023-04-02T12:07:17.868Z,5.95
2023-04-02T12:09:50.792Z,6.02
2023-04-02T12:12:28.077Z,6.02
2023-04-02T12:14:58.886Z,6.10
2023-04-02T12:17:33.659Z,6.08
2023-04-02T12:20:10.217Z,6.05
2023-04-02T12:22:47.287Z,6.09
2023-04-02T12:25:29.642Z,6.10
2023-04-02T12:28:21.066Z,6.13
2023-04-02T12:30:52.809Z,6.16
2023-04-02T12:33:33.734Z,6.14
2023-04-02T12:36:04.949Z,6.15
2023-04-02T12:38:37.921Z,6.15
2023-04-02T12:41:21.727Z,6.13
2023-04-02T12:43:59.464Z,6.19
2023-04-02T12:46:29.965Z,6.19
2023-04-02T12:49:06.180Z,6.16
2023-04-02T12:51:37.387Z,6.24
2023-04-02T12:54:07.483Z,6.27
2023-04-02T12:56:36.622Z,6.32
2023-04-02T12:59:06.034Z,6.36
2023-04-02T13:01:35.160Z,6.45
2023-04-02T13:04:08.189Z,6.47
2023-04-02T13:06:38.555Z,6.52
2023-04-02T13:09:24.898Z,6.46
2023-04-02T13:11:55.060Z,6.47
2023-04-02T13:14:26.979Z,6.50
2023-04-02T13:16:56.863Z,6.52
2023-04-02T13:19:30.625Z,6.48
2023-04-02T13:22:01.754Z,6.45
2023-04-02T13:24:32.983Z,6.51
2023-04-02T13:27:04.203Z,6.58
2023-04-02T13:29:37.799Z,6.61
2023-04-02T13:32:13.176Z,6.71
2023-04-02T13:34:43.968Z,6.70
2023-04-02T13:37:14.136Z,6.81
2023-04-02T13:39:43.674Z,6.89
2023-04-02T13:42:13.989Z,7.04
2023-04-02T13:44:43.981Z,7.28
2023-04-02T13:47:16.195Z,7.64
2023-04-02T13:49:47.002Z,8.02
2023-04-02T13:52:17.776Z,8.44
2023-04-02T13:54:49.386Z,8.75
2023-04-02T13:57:18.963Z,9.10
2023-04-02T13:59:48.414Z,9.34
2023-04-02T14:02:21.618Z,9.75
2023-04-02T14:05:05.241Z,10.09
2023-04-02T14:07:50.838Z,10.58
2023-04-02T14:10:31.746Z,11.02
2023-04-02T14:13:14.944Z,11.12
2023-04-02T14:16:00.096Z,11.50
2023-04-02T14:18:55.196Z,11.93
2023-04-02T14:21:39.880Z,12.32
2023-04-02T14:24:19.039Z,12.37
2023-04-02T14:27:04.495Z,12.68
2023-04-02T14:29:38.463Z,12.74
2023-04-02T14:32:11.130Z,12.82
2023-04-02T14:34:48.525Z,12.94
2023-04-02T14:37:30.562Z,13.13
2023-04-02T14:40:11.480Z,13.53
2023-04-02T14:42:48.908Z,13.54
2023-04-02T14:45:26.224Z,13.60
2023-04-02T14:48:02.393Z,13.78
2023-04-02T14:50:38.452Z,13.91
2023-04-02T14:53:18.554Z,14.21
2023-04-02T14:55:51.118Z,14.28
2023-04-02T14:58:24.439Z,14.24
2023-04-02T15:00:58.410Z,14.25
2023-04-02T15:03:32.567Z,14.42
2023-04-02T15:06:04.709Z,14.62
2023-04-02T15:08:40.570Z,14.51
2023-04-02T15:11:16.475Z,14.81
2023-04-02T15:13:51.005Z,14.87
2023-04-02T15:16:22.834Z,14.79
2023-04-02T15:18:54.151Z,14.84
2023-04-02T15:21:46.443Z,15.06
2023-04-02T15:24:33.601Z,15.07
2023-04-02T15:27:23.877Z,14.77
2023-04-02T15:30:04.959Z,14.80
2023-04-02T15:32:39.876Z,14.77
2023-04-02T15:35:24.038Z,15.18
2023-04-02T15:38:01.149Z,14.72
2023-04-02T15:40:45.789Z,14.88
2023-04-02T15:43:21.940Z,15.26
2023-04-02T15:45:57.341Z,15.32
2023-04-02T15:48:55.846Z,15.43
2023-04-02T15:51:39.772Z,15.18
2023-04-02T15:54:21.319Z,15.42
2023-04-02T15:57:01.726Z,15.53
2023-04-02T15:59:48.901Z,15.81
2023-04-02T16:02:41.616Z,15.68
2023-04-02T16:05:22.022Z,15.51
2023-04-02T16:08:23.651Z,15.05
2023-04-02T16:10:53.040Z,14.75
2023-04-02T16:13:29.693Z,14.98
2023-04-02T16:16:05.753Z,14.79
2023-04-02T16:18:48.794Z,14.64
2023-04-02T16:21:23.221Z,14.40
2023-04-02T16:23:52.851Z,14.53
2023-04-02T16:26:41.094Z,14.60
2023-04-02T16:29:26.921Z,14.08
2023-04-02T16:32:02.369Z,13.63
2023-04-02T16:34:40.656Z,13.32
2023-04-02T16:37:20.048Z,12.94
2023-04-02T16:39:56.735Z,12.52
2023-04-02T16:42:35.522Z,12.07
2023-04-02T16:45:23.793Z,11.34
2023-04-02T16:48:06.145Z,10.52
2023-04-02T16:50:49.838Z,10.03
2023-04-02T16:53:28.963Z,10.07
2023-04-02T16:56:19.715Z,9.47
2023-04-02T16:59:01.039Z,8.87
2023-04-02T17:01:39.836Z,8.27
2023-04-02T17:04:36.603Z,7.97
2023-04-02T17:07:14.776Z,7.65
2023-04-02T17:09:51.303Z,7.33
2023-04-02T17:12:24.442Z,7.38
2023-04-02T17:14:58.246Z,7.35
2023-04-02T17:17:29.406Z,6.86
2023-04-02T17:20:01.936Z,6.64
2023-04-02T17:22:33.741Z,6.72
2023-04-02T17:25:08.555Z,6.38
2023-04-02T17:27:42.523Z,6.26
2023-04-02T17:30:20.907Z,6.25
2023-04-02T17:32:53.351Z,5.93
2023-04-02T17:35:33.470Z,5.72
2023-04-02T17:38:10.770Z,5.61
2023-04-02T17:40:48.907Z,5.46
2023-04-02T17:43:34.391Z,5.44
2023-04-02T17:46:17.480Z,5.36
2023-04-02T17:48:57.122Z,5.27
2023-04-02T17:51:36.786Z,5.10
2023-04-02T17:54:35.249Z,4.77
2023-04-02T17:57:20.885Z,4.64
2023-04-02T18:00:04.607Z,4.74
2023-04-02T18:02:55.615Z,4.56
2023-04-02T18:05:35.049Z,4.51
2023-04-02T18:08:14.793Z,4.26
2023-04-02T18:10:55.909Z,4.24
2023-04-02T18:13:35.176Z,4.16
2023-04-02T18:16:28.616Z,4.04
2023-04-02T18:19:10.120Z,3.92
2023-04-02T18:21:53.758Z,3.87
2023-04-02T18:25:17.019Z,3.81
2023-04-02T18:28:02.314Z,3.82
2023-04-02T18:30:45.603Z,3.83
2023-04-02T18:33:37.639Z,3.63
2023-04-02T18:36:13.871Z,3.56
2023-04-02T18:38:52.558Z,3.47
2023-04-02T18:41:40.234Z,3.41
2023-04-02T18:44:25.696Z,3.40
2023-04-02T18:46:59.305Z,3.31
2023-04-02T18:49:33.926Z,3.34
2023-04-02T18:52:05.783Z,3.32
2023-04-02T18:54:40.506Z,3.39
2023-04-02T18:57:14.834Z,3.31
2023-04-02T18:59:49.898Z,3.26
2023-04-02T19:02:37.121Z,3.21
2023-04-02T19:05:14.449Z,3.20
2023-04-02T19:07:53.231Z,3.23
2023-04-02T19:10:38.462Z,3.11
2023-04-02T19:13:14.474Z,3.12
2023-04-02T19:16:07.714Z,3.11
2023-04-02T19:18:51.565Z,3.04
2023-04-02T19:21:33.477Z,2.96
2023-04-02T19:24:18.465Z,2.91
2023-04-02T19:26:57.751Z,2.94
2023-04-02T19:29:42.986Z,2.95
2023-04-02T19:32:21.150Z,2.90
2023-04-02T19:35:00.222Z,2.98
2023-04-02T19:37:37.851Z,2.99
2023-04-02T19:40:27.220Z,2.97
2023-04-02T19:42:58.515Z,2.98
2023-04-02T19:45:39.838Z,2.89
2023-04-02T19:48:19.178Z,2.93
2023-04-02T19:50:51.586Z,2.86
2023-04-02T19:53:24.376Z,2.83
2023-04-02T19:55:55.950Z,2.87
2023-04-02T19:58:31.973Z,2.85
2023-04-02T20:01:04.166Z,2.84
2023-04-02T20:03:33.735Z,2.74
2023-04-02T20:06:03.890Z,2.73
2023-04-02T20:08:36.604Z,2.76
2023-04-02T20:11:08.358Z,2.78
2023-04-02T20:13:41.508Z,2.76
2023-04-02T20:16:11.665Z,2.80
2023-04-02T20:18:42.880Z,2.78
2023-04-02T20:21:15.794Z,2.79
2023-04-02T20:23:45.394Z,2.75
2023-04-02T20:26:14.613Z,2.74
2023-04-02T20:28:47.639Z,2.73
2023-04-02T20:31:19.402Z,2.69
2023-04-02T20:33:50.416Z,2.69
2023-04-02T20:36:22.097Z,2.70
2023-04-02T20:38:53.005Z,2.69
2023-04-02T20:41:28.689Z,2.69
2023-04-02T20:44:00.579Z,2.65
2023-04-02T20:46:30.782Z,2.71
2023-04-02T20:49:03.368Z,2.69
2023-04-02T20:51:35.621Z,2.69
2023-04-02T20:54:07.692Z,2.64
2023-04-02T20:56:37.723Z,2.61
2023-04-02T20:59:08.444Z,2.58
2023-04-02T21:01:37.668Z,2.60
2023-04-02T21:04:07.224Z,2.60
2023-04-02T21:06:39.118Z,2.59
2023-04-02T21:09:12.912Z,2.58
2023-04-02T21:11:42.714Z,2.59
2023-04-02T21:14:13.256Z,2.57
2023-04-02T21:16:42.648Z,2.54
2023-04-02T21:19:12.271Z,2.48
2023-04-02T21:21:44.184Z,2.44
2023-04-02T21:24:13.824Z,2.54
2023-04-02T21:26:43.474Z,2.49
2023-04-02T21:29:15.151Z,2.44
2023-04-02T21:31:44.941Z,2.46
2023-04-02T21:34:15.091Z,2.45
2023-04-02T21:36:46.171Z,2.39
2023-04-02T21:39:19.856Z,2.40
2023-04-02T21:41:51.247Z,2.42
2023-04-02T21:44:27.655Z,2.38
2023-04-02T21:46:56.850Z,2.44
2023-04-02T21:49:27.373Z,2.40
2023-04-02T21:51:56.581Z,2.37
2023-04-02T21:54:26.122Z,2.36
2023-04-02T21:56:55.309Z,2.34
2023-04-02T21:59:26.361Z,2.31
2023-04-02T22:01:55.634Z,2.32
2023-04-02T22:04:26.603Z,2.32
2023-04-02T22:06:56.314Z,2.37
2023-04-02T22:09:27.423Z,2.27
2023-04-02T22:11:59.276Z,2.27
2023-04-02T22:14:31.214Z,2.25
2023-04-02T22:17:00.837Z,2.31
2023-04-02T22:19:30.000Z,2.30
2023-04-02T22:21:59.081Z,2.25
2023-04-02T22:24:28.848Z,2.31
2023-04-02T22:26:58.021Z,2.27
2023-04-02T22:29:27.444Z,2.31
2023-04-02T22:31:58.218Z,2.33
2023-04-02T22:34:27.602Z,2.33
2023-04-02T22:36:57.128Z,2.34
2023-04-02T22:39:26.347Z,2.32
2023-04-02T22:41:55.344Z,2.35
2023-04-02T22:44:24.753Z,2.41
2023-04-02T22:46:53.756Z,2.46
2023-04-02T22:49:24.700Z,2.51
2023-04-02T22:51:54.454Z,2.59
2023-04-02T22:54:23.861Z,2.54
2023-04-02T22:56:52.915Z,2.56
2023-04-02T22:59:22.256Z,2.58
2023-04-02T23:01:51.380Z,2.61
2023-04-02T23:04:20.818Z,2.69
2023-04-02T23:06:51.605Z,2.62
2023-04-02T23:09:21.517Z,2.62
2023-04-02T23:11:50.669Z,2.71
2023-04-02T23:14:20.036Z,2.72
2023-04-02T23:16:49.157Z,2.75
2023-04-02T23:19:18.546Z,2.75
2023-04-02T23:21:47.703Z,2.76
2023-04-02T23:24:18.806Z,2.82
2023-04-02T23:26:47.836Z,2.84
2023-04-02T23:29:17.316Z,2.80
2023-04-02T23:31:47.572Z,2.82
2023-04-02T23:34:17.029Z,2.88
2023-04-02T23:36:46.538Z,2.88
2023-04-02T23:39:17.240Z,2.89
2023-04-02T23:41:46.277Z,2.88
2023-04-02T23:44:16.081Z,2.85
2023-04-02T23:46:45.241Z,2.87
2023-04-02T23:49:14.770Z,2.89
2023-04-02T23:51:44.169Z,2.85
2023-04-02T23:54:15.188Z,2.84
2023-04-02T23:56:45.680Z,2.81
2023-04-02T23:59:15.196Z,2.84
